createdAt,value
2018-09-24T07:30:20.414Z,1024.62
2018-09-24T07:33:20.100Z,1024.67
2018-09-24T07:37:14.310Z,1024.77
2018-09-24T07:38:14.352Z,1024.73
2018-09-24T07:41:06.595Z,1024.80
2018-09-24T07:42:07.709Z,1024.84
2018-09-24T07:43:07.780Z,1024.93
2018-09-24T07:45:12.725Z,1024.92
2018-09-24T07:46:07.221Z,1024.95
2018-09-24T07:47:07.620Z,1024.99
2018-09-24T07:48:07.925Z,1024.99
2018-09-24T07:49:08.371Z,1025.02
2018-09-24T07:50:08.824Z,1025.00
2018-09-24T07:51:09.377Z,1025.03
2018-09-24T07:52:09.806Z,1025.03
2018-09-24T07:53:10.376Z,1025.04
2018-09-24T07:54:10.821Z,1025.11
2018-09-24T07:55:11.438Z,1025.07
2018-09-24T07:56:11.824Z,1025.08
2018-09-24T07:57:12.294Z,1025.12
2018-09-24T07:58:12.799Z,1025.12
2018-09-24T07:59:13.288Z,1025.19
2018-09-24T08:00:13.777Z,1025.16
2018-09-24T08:01:14.256Z,1025.20
2018-09-24T08:02:14.764Z,1025.22
2018-09-24T08:03:15.258Z,1025.22
2018-09-24T08:04:15.802Z,1025.25
2018-09-24T08:05:16.242Z,1025.19
2018-09-24T08:06:16.814Z,1025.24
2018-09-24T08:07:17.289Z,1025.27
2018-09-24T08:08:17.813Z,1025.32
2018-09-24T08:09:18.204Z,1025.30
2018-09-24T08:10:18.740Z,1025.28
2018-09-24T08:11:19.197Z,1025.28
2018-09-24T08:12:19.696Z,1025.26
2018-09-24T08:13:20.271Z,1025.31
2018-09-24T08:14:20.718Z,1025.28
2018-09-24T08:15:21.529Z,1025.40
2018-09-24T08:16:23.522Z,1025.40
2018-09-24T08:17:23.954Z,1025.44
2018-09-24T08:18:24.444Z,1025.45
2018-09-24T08:19:28.443Z,1025.40
2018-09-24T08:20:28.213Z,1025.33
2018-09-24T08:23:45.957Z,1025.41
2018-09-24T08:24:45.999Z,1025.43
2018-09-24T08:25:45.970Z,1025.49
2018-09-24T08:26:47.390Z,1025.50
2018-09-24T08:27:47.331Z,1025.52
2018-09-24T08:29:06.721Z,1025.55
2018-09-24T08:31:09.490Z,1025.51
2018-09-24T11:19:06.409Z,1026.15
2018-09-24T11:22:23.188Z,1026.13
2018-09-24T11:30:13.953Z,1026.28
2018-09-24T11:59:08.033Z,1026.57
2018-09-24T12:03:18.887Z,1026.57
2018-09-24T12:10:52.555Z,1026.53
2018-09-24T12:22:50.841Z,1026.38
2018-09-24T12:25:02.349Z,1026.39
2018-09-24T12:26:02.695Z,1026.37
2018-09-24T12:27:04.293Z,1026.36
2018-09-24T12:28:05.071Z,1026.38
2018-09-24T12:29:07.603Z,1026.38
2018-09-24T12:31:26.122Z,1026.34
2018-09-24T12:32:26.088Z,1026.34
2018-09-24T12:33:27.072Z,1026.34
2018-09-24T12:34:28.744Z,1026.39
2018-09-24T12:35:30.144Z,1026.36
2018-09-24T12:45:32.809Z,1026.30
2018-09-24T12:46:32.494Z,1026.31
2018-09-24T12:47:33.583Z,1026.37
2018-09-24T12:48:32.633Z,1026.42
2018-09-24T12:49:34.076Z,1026.41
2018-09-24T12:50:35.564Z,1026.38
2018-09-24T12:51:34.104Z,1026.38
2018-09-24T12:54:59.157Z,1026.39
2018-09-24T12:55:58.037Z,1026.44
2018-09-24T12:56:59.075Z,1026.36
2018-09-24T12:58:00.860Z,1026.35
2018-09-24T12:59:01.855Z,1026.36
2018-09-24T13:00:02.894Z,1026.24
2018-09-24T13:08:32.312Z,1026.45
2018-09-24T13:09:32.385Z,1026.35
2018-09-24T13:10:34.470Z,1026.37
2018-09-24T13:11:34.926Z,1026.37
2018-09-24T13:12:34.523Z,1026.34
2018-09-24T13:17:11.285Z,1026.34
2018-09-24T13:18:07.831Z,1026.27
2018-09-24T13:19:08.692Z,1026.30
2018-09-24T13:20:09.206Z,1026.17
2018-09-24T13:21:17.730Z,1026.32
2018-09-24T13:22:20.399Z,1026.30
2018-09-24T13:23:22.126Z,1026.12
2018-09-24T13:24:24.279Z,1026.28
2018-09-24T13:25:27.439Z,1026.24
2018-09-24T13:26:29.913Z,1026.32
2018-09-24T13:27:34.199Z,1026.25
2018-09-24T13:28:36.477Z,1026.32
2018-09-24T13:29:36.671Z,1026.35
2018-09-24T13:30:38.922Z,1026.31
2018-09-24T13:31:40.384Z,1026.37
2018-09-24T13:32:41.194Z,1026.28
2018-09-24T13:33:41.722Z,1026.36
2018-09-24T13:34:44.183Z,1026.36
2018-09-24T13:35:46.673Z,1026.32
2018-09-24T13:36:47.415Z,1026.41
2018-09-24T13:37:49.980Z,1026.38
2018-09-24T13:48:25.490Z,1026.41
2018-09-24T13:49:23.923Z,1026.38
2018-09-24T14:00:20.511Z,1026.37
2018-09-24T14:01:20.735Z,1026.39
2018-09-24T14:02:25.228Z,1026.45
2018-09-24T14:03:25.095Z,1026.41
2018-09-24T14:04:27.651Z,1026.38
2018-09-24T14:23:42.350Z,1026.37
2018-09-24T17:05:04.324Z,1027.58
2018-09-24T17:06:04.195Z,1027.55
2018-09-24T17:14:13.899Z,1027.71
2018-09-24T17:17:10.842Z,1027.74
2018-09-24T17:18:10.974Z,1027.77
2018-09-24T18:14:44.045Z,1028.50
2018-09-24T18:15:43.948Z,1028.56
2018-09-24T18:16:44.482Z,1028.61
2018-09-24T18:17:46.209Z,1028.55
2018-09-24T18:18:46.896Z,1028.62
2018-09-24T18:22:53.369Z,1028.66
2018-09-24T18:27:08.147Z,1028.69
2018-09-24T18:28:08.108Z,1028.68
2018-09-24T18:29:09.028Z,1028.67
2018-09-24T18:31:09.180Z,1028.74
2018-09-24T18:32:10.849Z,1028.77
2018-09-24T18:33:11.810Z,1028.72
2018-09-24T18:36:33.265Z,1028.76
2018-09-24T18:37:33.860Z,1028.75
2018-09-24T18:38:34.046Z,1028.75
2018-09-24T18:39:34.308Z,1028.82
2018-09-24T18:40:35.664Z,1028.78
2018-09-24T18:41:36.172Z,1028.79
2018-09-24T18:42:37.222Z,1028.77
2018-09-24T18:44:37.793Z,1028.82
2018-09-24T18:55:26.909Z,1029.01
2018-09-24T18:56:26.470Z,1029.01
2018-09-24T18:57:27.070Z,1029.02
2018-09-24T18:58:27.983Z,1028.97
2018-09-24T18:59:31.289Z,1029.03
2018-09-24T19:00:30.037Z,1029.07
2018-09-24T19:01:30.077Z,1029.08
2018-09-24T19:02:30.306Z,1029.04
2018-09-24T19:03:34.265Z,1029.07
2018-09-24T19:04:33.665Z,1029.09
2018-09-24T19:06:34.572Z,1029.10
2018-09-24T19:07:34.438Z,1029.11
2018-09-24T19:09:43.344Z,1029.20
2018-09-24T19:17:15.345Z,1029.17
2018-09-24T19:18:14.860Z,1029.19
2018-09-24T19:21:12.740Z,1029.17
2018-09-24T19:29:51.656Z,1029.23
2018-09-24T19:30:53.610Z,1029.19
2018-09-24T19:33:02.670Z,1029.14
2018-09-24T19:34:02.412Z,1029.14
2018-09-24T19:35:02.553Z,1029.20
2018-09-24T19:36:03.046Z,1029.22
2018-09-24T19:37:02.881Z,1029.23
2018-09-24T19:48:17.153Z,1029.32
2018-09-24T19:53:27.296Z,1029.29
2018-09-24T19:54:27.205Z,1029.24
2018-09-24T19:55:45.613Z,1029.28
2018-09-24T19:56:44.030Z,1029.26
2018-09-24T19:58:51.760Z,1029.35
2018-09-24T20:00:55.084Z,1029.43
2018-09-24T20:01:50.954Z,1029.44
2018-09-24T20:02:54.842Z,1029.44
2018-09-24T20:07:04.803Z,1029.45
2018-09-24T20:08:03.986Z,1029.41
2018-09-24T20:09:09.455Z,1029.41
2018-09-24T20:10:14.320Z,1029.39
2018-09-24T20:11:15.827Z,1029.47
2018-09-24T20:15:24.678Z,1029.54
2018-09-24T20:17:23.858Z,1029.51
2018-09-24T20:21:06.110Z,1029.46
2018-09-24T20:24:29.009Z,1029.44
2018-09-24T20:25:28.385Z,1029.42
2018-09-24T20:27:29.022Z,1029.43
2018-09-24T20:28:29.033Z,1029.41
2018-09-24T20:33:35.194Z,1029.56
2018-09-24T20:34:35.140Z,1029.55
2018-09-24T20:35:35.636Z,1029.54
2018-09-24T20:36:37.042Z,1029.58
2018-09-24T20:37:40.150Z,1029.62
2018-09-24T20:42:32.836Z,1029.61
2018-09-24T20:43:37.405Z,1029.64
2018-09-24T20:44:36.888Z,1029.62
2018-09-24T20:45:35.838Z,1029.68
2018-09-24T20:47:41.221Z,1029.74
2018-09-24T20:48:41.411Z,1029.73
2018-09-24T20:49:43.783Z,1029.70
2018-09-24T20:50:42.726Z,1029.73
2018-09-24T20:51:43.394Z,1029.74
2018-09-24T20:52:44.804Z,1029.77
2018-09-24T20:54:49.354Z,1029.81
2018-09-24T20:55:48.827Z,1029.87
2018-09-24T20:56:48.732Z,1029.80
2018-09-24T20:57:47.404Z,1029.85
2018-09-24T20:58:47.948Z,1029.87
2018-09-24T20:59:50.194Z,1029.88
2018-09-24T21:00:53.730Z,1029.89
2018-09-24T21:01:54.405Z,1029.86
2018-09-24T21:03:06.789Z,1029.85
2018-09-24T21:04:10.411Z,1029.96
2018-09-24T21:05:10.976Z,1029.99
2018-09-24T21:06:13.216Z,1029.93
2018-09-24T21:07:13.993Z,1029.98
2018-09-24T21:08:14.771Z,1029.86
2018-09-24T21:09:15.151Z,1030.03
2018-09-24T21:10:18.980Z,1029.93
2018-09-24T21:13:37.614Z,1030.00
2018-09-24T21:17:33.333Z,1030.07
2018-09-24T21:21:29.237Z,1030.14
2018-09-24T21:22:28.723Z,1030.12
2018-09-24T21:25:23.688Z,1030.15
2018-09-24T21:29:18.536Z,1030.25
2018-09-24T21:30:19.501Z,1030.28
2018-09-24T21:31:19.574Z,1030.31
2018-09-24T21:32:20.734Z,1030.31
2018-09-24T21:33:21.552Z,1030.28
2018-09-24T21:34:22.294Z,1030.32
2018-09-24T21:35:22.943Z,1030.36
2018-09-24T21:36:24.462Z,1030.38
2018-09-24T21:37:23.967Z,1030.38
2018-09-24T21:38:24.879Z,1030.38
2018-09-24T21:39:26.492Z,1030.41
2018-09-24T21:40:28.877Z,1030.43
2018-09-24T21:41:26.471Z,1030.44
2018-09-24T21:42:27.133Z,1030.43
2018-09-24T21:43:28.032Z,1030.26
2018-09-24T21:44:28.349Z,1030.37
2018-09-24T21:45:29.125Z,1030.24
2018-09-24T21:46:31.127Z,1030.38
2018-09-24T21:47:33.578Z,1030.45
2018-09-24T21:48:33.981Z,1030.43
2018-09-24T21:49:48.357Z,1030.40
2018-09-24T21:50:49.434Z,1030.43
2018-09-24T21:52:49.390Z,1030.43
2018-09-24T21:53:49.909Z,1030.43
2018-09-24T21:54:59.810Z,1030.43
2018-09-24T21:57:00.396Z,1030.39
2018-09-24T22:05:01.552Z,1030.46
2018-09-24T22:06:01.583Z,1030.44
2018-09-24T22:08:57.576Z,1030.48
2018-09-24T22:09:58.126Z,1030.45
2018-09-24T22:10:57.679Z,1030.45
2018-09-24T22:12:00.735Z,1030.52
2018-09-24T22:13:00.512Z,1030.46
2018-09-24T22:14:00.914Z,1030.49
2018-09-24T22:15:00.091Z,1030.45
2018-09-24T22:16:02.195Z,1030.45
2018-09-24T22:20:06.800Z,1030.47
2018-09-24T22:21:06.818Z,1030.51
2018-09-24T22:22:07.286Z,1030.55
2018-09-24T22:23:07.785Z,1030.54
2018-09-24T22:24:08.840Z,1030.58
2018-09-24T22:25:10.284Z,1030.57
2018-09-24T22:26:09.964Z,1030.58
2018-09-24T22:27:10.009Z,1030.61
2018-09-24T22:28:11.009Z,1030.61
2018-09-24T22:29:10.391Z,1030.58
2018-09-24T22:30:11.879Z,1030.55
2018-09-24T22:31:12.021Z,1030.56
2018-09-24T22:32:12.325Z,1030.55
2018-09-24T22:33:14.249Z,1030.58
2018-09-24T22:34:13.862Z,1030.55
2018-09-24T22:35:13.518Z,1030.61
2018-09-24T22:36:15.728Z,1030.59
2018-09-24T22:37:17.237Z,1030.61
2018-09-24T22:38:15.798Z,1030.58
2018-09-24T22:39:16.509Z,1030.58
2018-09-24T22:40:14.952Z,1030.57
2018-09-24T22:41:13.432Z,1030.62
2018-09-24T22:42:13.823Z,1030.61
2018-09-24T22:43:16.271Z,1030.61
2018-09-24T22:44:16.812Z,1030.57
2018-09-24T22:45:17.335Z,1030.65
2018-09-24T22:46:17.817Z,1030.66
2018-09-24T22:47:18.213Z,1030.67
2018-09-24T22:48:18.726Z,1030.68
2018-09-24T22:49:19.313Z,1030.59
2018-09-24T22:50:19.917Z,1030.69
2018-09-24T22:51:20.632Z,1030.68
2018-09-24T22:52:21.123Z,1030.48
2018-09-24T22:53:21.845Z,1030.76
2018-09-24T22:54:22.620Z,1030.70
2018-09-24T22:55:22.733Z,1030.68
2018-09-24T22:56:23.777Z,1030.74
2018-09-24T22:57:23.791Z,1030.79
2018-09-24T22:58:24.868Z,1030.69
2018-09-24T22:59:25.945Z,1030.71
2018-09-24T23:00:26.100Z,1030.81
2018-09-24T23:01:27.390Z,1030.84
2018-09-24T23:02:27.320Z,1030.83
2018-09-24T23:03:29.309Z,1030.73
2018-09-24T23:04:40.869Z,1030.81
2018-09-24T23:05:42.007Z,1030.84
2018-09-24T23:06:41.498Z,1030.83
2018-09-24T23:07:41.800Z,1030.79
2018-09-24T23:08:41.968Z,1030.81
2018-09-24T23:09:43.201Z,1030.76
2018-09-24T23:10:43.337Z,1030.78
2018-09-24T23:11:44.238Z,1030.78
2018-09-24T23:12:43.698Z,1030.79
2018-09-24T23:13:44.571Z,1030.79
2018-09-24T23:14:44.944Z,1030.79
2018-09-24T23:15:47.341Z,1030.89
2018-09-24T23:16:46.463Z,1030.90
2018-09-24T23:17:45.303Z,1030.89
2018-09-24T23:18:46.479Z,1030.86
2018-09-24T23:19:47.099Z,1030.86
2018-09-24T23:20:48.362Z,1030.88
2018-09-24T23:21:52.094Z,1030.72
2018-09-24T23:22:52.467Z,1030.84
2018-09-24T23:23:53.305Z,1030.81
2018-09-24T23:24:54.118Z,1030.81
2018-09-24T23:25:54.431Z,1030.83
2018-09-24T23:26:54.992Z,1030.83
2018-09-24T23:27:55.816Z,1030.70
2018-09-24T23:28:57.877Z,1030.78
2018-09-24T23:29:00.002Z,1030.72
2018-09-24T23:30:58.276Z,1030.78
2018-09-24T23:32:05.309Z,1030.70
2018-09-24T23:33:06.047Z,1030.75
2018-09-24T23:34:06.359Z,1030.73
2018-09-24T23:35:06.885Z,1030.78
2018-09-24T23:36:07.772Z,1030.77
2018-09-24T23:37:08.522Z,1030.77
2018-09-24T23:38:09.035Z,1030.56
2018-09-24T23:42:16.757Z,1030.85
2018-09-24T23:43:19.290Z,1030.81
2018-09-24T23:44:17.883Z,1030.87
2018-09-24T23:45:18.181Z,1030.83
2018-09-24T23:48:40.964Z,1030.83
2018-09-24T23:49:41.433Z,1030.87
2018-09-24T23:50:42.499Z,1030.86
2018-09-24T23:51:43.216Z,1030.86
2018-09-24T23:52:43.914Z,1030.82
2018-09-24T23:53:42.981Z,1030.87
2018-09-24T23:54:43.967Z,1030.88
2018-09-24T23:55:45.485Z,1030.87
2018-09-24T23:56:46.266Z,1030.86
2018-09-24T23:57:46.338Z,1030.88
2018-09-24T23:58:45.754Z,1030.89
